sensor_id;sensor_type;location;lat;lon;timestamp;temperature;humidity
44117;DHT22;29781;49.480;8.512;2022-07-31T00:01:39;23.70;77.20
44117;DHT22;29781;49.480;8.512;2022-07-31T00:04:05;23.60;77.90
44117;DHT22;29781;49.480;8.512;2022-07-31T00:06:31;23.50;78.60
44117;DHT22;29781;49.480;8.512;2022-07-31T00:08:56;23.50;78.50
44117;DHT22;29781;49.480;8.512;2022-07-31T00:11:22;23.60;78.60
44117;DHT22;29781;49.480;8.512;2022-07-31T00:13:48;23.50;79.50
44117;DHT22;29781;49.480;8.512;2022-07-31T00:16:13;23.40;81.80
44117;DHT22;29781;49.480;8.512;2022-07-31T00:18:39;23.50;82.80
44117;DHT22;29781;49.480;8.512;2022-07-31T00:21:05;23.30;84.10
44117;DHT22;29781;49.480;8.512;2022-07-31T00:23:30;23.10;82.10
44117;DHT22;29781;49.480;8.512;2022-07-31T00:25:56;22.80;79.20
44117;DHT22;29781;49.480;8.512;2022-07-31T00:28:22;22.80;80.60
44117;DHT22;29781;49.480;8.512;2022-07-31T00:30:47;22.60;80.10
44117;DHT22;29781;49.480;8.512;2022-07-31T00:33:13;22.80;80.50
44117;DHT22;29781;49.480;8.512;2022-07-31T00:35:39;22.80;80.50
44117;DHT22;29781;49.480;8.512;2022-07-31T00:38:05;22.90;80.30
44117;DHT22;29781;49.480;8.512;2022-07-31T00:40:30;23.00;80.00
44117;DHT22;29781;49.480;8.512;2022-07-31T00:42:56;23.00;79.90
44117;DHT22;29781;49.480;8.512;2022-07-31T00:45:21;23.10;79.70
44117;DHT22;29781;49.480;8.512;2022-07-31T00:47:48;23.10;79.20
44117;DHT22;29781;49.480;8.512;2022-07-31T00:50:14;22.90;79.20
44117;DHT22;29781;49.480;8.512;2022-07-31T00:52:39;23.00;79.80
44117;DHT22;29781;49.480;8.512;2022-07-31T00:55:06;23.10;79.50
44117;DHT22;29781;49.480;8.512;2022-07-31T00:57:32;23.20;79.60
44117;DHT22;29781;49.480;8.512;2022-07-31T00:59:57;23.30;79.10
44117;DHT22;29781;49.480;8.512;2022-07-31T01:02:23;23.20;79.50
44117;DHT22;29781;49.480;8.512;2022-07-31T01:04:48;23.30;79.20
44117;DHT22;29781;49.480;8.512;2022-07-31T01:07:14;23.50;78.50
44117;DHT22;29781;49.480;8.512;2022-07-31T01:09:40;23.50;78.60
44117;DHT22;29781;49.480;8.512;2022-07-31T01:12:17;23.40;78.90
44117;DHT22;29781;49.480;8.512;2022-07-31T01:14:49;23.30;79.60
44117;DHT22;29781;49.480;8.512;2022-07-31T01:17:18;23.10;80.10
44117;DHT22;29781;49.480;8.512;2022-07-31T01:19:46;23.10;80.30
44117;DHT22;29781;49.480;8.512;2022-07-31T01:25:15;23.10;80.40
44117;DHT22;29781;49.480;8.512;2022-07-31T01:30:24;22.80;81.00
44117;DHT22;29781;49.480;8.512;2022-07-31T01:32:56;22.60;81.10
44117;DHT22;29781;49.480;8.512;2022-07-31T01:35:29;22.50;82.00
44117;DHT22;29781;49.480;8.512;2022-07-31T01:38:00;22.50;81.70
44117;DHT22;29781;49.480;8.512;2022-07-31T01:40:31;22.40;82.50
44117;DHT22;29781;49.480;8.512;2022-07-31T01:43:06;22.60;82.60
44117;DHT22;29781;49.480;8.512;2022-07-31T01:45:32;22.80;82.50
44117;DHT22;29781;49.480;8.512;2022-07-31T01:48:00;22.70;82.60
44117;DHT22;29781;49.480;8.512;2022-07-31T01:50:27;22.60;82.60
44117;DHT22;29781;49.480;8.512;2022-07-31T01:52:55;22.30;83.10
44117;DHT22;29781;49.480;8.512;2022-07-31T01:55:23;22.00;84.10
44117;DHT22;29781;49.480;8.512;2022-07-31T01:57:50;21.80;85.30
44117;DHT22;29781;49.480;8.512;2022-07-31T02:00:17;21.60;85.90
44117;DHT22;29781;49.480;8.512;2022-07-31T02:02:43;21.50;87.10
44117;DHT22;29781;49.480;8.512;2022-07-31T02:05:10;21.60;87.50
44117;DHT22;29781;49.480;8.512;2022-07-31T02:07:39;21.70;87.50
44117;DHT22;29781;49.480;8.512;2022-07-31T02:10:07;21.70;87.60
44117;DHT22;29781;49.480;8.512;2022-07-31T02:12:34;21.90;87.90
44117;DHT22;29781;49.480;8.512;2022-07-31T02:15:06;21.80;87.90
44117;DHT22;29781;49.480;8.512;2022-07-31T02:17:34;21.80;89.40
44117;DHT22;29781;49.480;8.512;2022-07-31T02:20:02;21.90;89.90
44117;DHT22;29781;49.480;8.512;2022-07-31T02:22:28;22.00;89.80
44117;DHT22;29781;49.480;8.512;2022-07-31T02:24:54;22.10;88.90
44117;DHT22;29781;49.480;8.512;2022-07-31T02:27:22;22.20;88.60
44117;DHT22;29781;49.480;8.512;2022-07-31T02:29:49;22.20;88.90
44117;DHT22;29781;49.480;8.512;2022-07-31T02:32:16;22.40;88.10
44117;DHT22;29781;49.480;8.512;2022-07-31T02:34:42;22.40;88.60
44117;DHT22;29781;49.480;8.512;2022-07-31T02:37:10;22.20;88.40
44117;DHT22;29781;49.480;8.512;2022-07-31T02:39:39;22.10;89.30
44117;DHT22;29781;49.480;8.512;2022-07-31T02:42:06;22.00;90.00
44117;DHT22;29781;49.480;8.512;2022-07-31T02:44:32;21.90;90.10
44117;DHT22;29781;49.480;8.512;2022-07-31T02:46:59;21.90;90.30
44117;DHT22;29781;49.480;8.512;2022-07-31T02:49:28;22.20;90.00
44117;DHT22;29781;49.480;8.512;2022-07-31T02:51:55;22.20;89.50
44117;DHT22;29781;49.480;8.512;2022-07-31T02:54:22;22.00;90.00
44117;DHT22;29781;49.480;8.512;2022-07-31T02:56:50;21.80;90.40
44117;DHT22;29781;49.480;8.512;2022-07-31T02:59:16;21.40;91.60
44117;DHT22;29781;49.480;8.512;2022-07-31T03:01:42;21.10;92.30
44117;DHT22;29781;49.480;8.512;2022-07-31T03:04:07;21.20;92.90
44117;DHT22;29781;49.480;8.512;2022-07-31T03:06:34;21.40;92.00
44117;DHT22;29781;49.480;8.512;2022-07-31T03:09:01;21.70;91.40
44117;DHT22;29781;49.480;8.512;2022-07-31T03:11:27;21.80;91.50
44117;DHT22;29781;49.480;8.512;2022-07-31T03:13:53;21.70;91.70
44117;DHT22;29781;49.480;8.512;2022-07-31T03:16:21;21.90;90.40
44117;DHT22;29781;49.480;8.512;2022-07-31T03:18:47;22.00;90.30
44117;DHT22;29781;49.480;8.512;2022-07-31T03:21:13;22.20;88.60
44117;DHT22;29781;49.480;8.512;2022-07-31T03:23:42;22.30;87.10
44117;DHT22;29781;49.480;8.512;2022-07-31T03:26:09;22.30;86.50
44117;DHT22;29781;49.480;8.512;2022-07-31T03:28:34;22.30;86.40
44117;DHT22;29781;49.480;8.512;2022-07-31T03:31:01;22.20;86.50
44117;DHT22;29781;49.480;8.512;2022-07-31T03:33:26;22.20;86.60
44117;DHT22;29781;49.480;8.512;2022-07-31T03:35:52;22.00;87.40
44117;DHT22;29781;49.480;8.512;2022-07-31T03:38:18;22.00;87.60
44117;DHT22;29781;49.480;8.512;2022-07-31T03:40:45;22.00;87.70
44117;DHT22;29781;49.480;8.512;2022-07-31T03:43:12;22.00;87.50
44117;DHT22;29781;49.480;8.512;2022-07-31T03:45:38;22.10;87.20
44117;DHT22;29781;49.480;8.512;2022-07-31T03:48:05;22.10;87.30
44117;DHT22;29781;49.480;8.512;2022-07-31T03:50:34;22.10;87.30
44117;DHT22;29781;49.480;8.512;2022-07-31T03:53:03;22.10;87.50
44117;DHT22;29781;49.480;8.512;2022-07-31T03:55:29;22.10;87.40
44117;DHT22;29781;49.480;8.512;2022-07-31T03:57:56;22.10;87.70
44117;DHT22;29781;49.480;8.512;2022-07-31T04:00:23;22.10;87.80
44117;DHT22;29781;49.480;8.512;2022-07-31T04:02:53;22.10;87.90
44117;DHT22;29781;49.480;8.512;2022-07-31T04:05:19;21.90;88.20
44117;DHT22;29781;49.480;8.512;2022-07-31T04:07:45;21.80;89.20
44117;DHT22;29781;49.480;8.512;2022-07-31T04:10:10;21.70;89.50
44117;DHT22;29781;49.480;8.512;2022-07-31T04:12:37;21.80;88.90
44117;DHT22;29781;49.480;8.512;2022-07-31T04:15:03;21.90;88.50
44117;DHT22;29781;49.480;8.512;2022-07-31T04:17:29;21.90;88.40
44117;DHT22;29781;49.480;8.512;2022-07-31T04:19:54;21.90;88.70
44117;DHT22;29781;49.480;8.512;2022-07-31T04:22:20;21.90;88.80
44117;DHT22;29781;49.480;8.512;2022-07-31T04:24:45;22.00;89.60
44117;DHT22;29781;49.480;8.512;2022-07-31T04:27:11;22.00;88.80
44117;DHT22;29781;49.480;8.512;2022-07-31T04:29:40;22.00;89.10
44117;DHT22;29781;49.480;8.512;2022-07-31T04:32:05;22.00;89.40
44117;DHT22;29781;49.480;8.512;2022-07-31T04:34:31;22.00;90.00
44117;DHT22;29781;49.480;8.512;2022-07-31T04:36:57;22.00;90.20
44117;DHT22;29781;49.480;8.512;2022-07-31T04:39:23;22.00;90.60
44117;DHT22;29781;49.480;8.512;2022-07-31T04:41:48;21.90;91.00
44117;DHT22;29781;49.480;8.512;2022-07-31T04:44:14;21.90;91.30
44117;DHT22;29781;49.480;8.512;2022-07-31T04:46:40;21.90;91.50
44117;DHT22;29781;49.480;8.512;2022-07-31T04:49:08;21.80;91.70
44117;DHT22;29781;49.480;8.512;2022-07-31T04:51:37;21.80;91.80
44117;DHT22;29781;49.480;8.512;2022-07-31T04:54:03;21.70;91.90
44117;DHT22;29781;49.480;8.512;2022-07-31T04:56:29;21.70;92.20
44117;DHT22;29781;49.480;8.512;2022-07-31T04:58:58;21.80;92.00
44117;DHT22;29781;49.480;8.512;2022-07-31T05:01:24;21.80;92.20
44117;DHT22;29781;49.480;8.512;2022-07-31T05:03:50;21.80;92.00
44117;DHT22;29781;49.480;8.512;2022-07-31T05:06:16;21.90;91.40
44117;DHT22;29781;49.480;8.512;2022-07-31T05:08:41;21.90;91.30
44117;DHT22;29781;49.480;8.512;2022-07-31T05:11:08;21.80;91.30
44117;DHT22;29781;49.480;8.512;2022-07-31T05:13:56;21.80;91.20
44117;DHT22;29781;49.480;8.512;2022-07-31T05:16:23;21.80;91.10
44117;DHT22;29781;49.480;8.512;2022-07-31T05:18:49;21.80;91.10
44117;DHT22;29781;49.480;8.512;2022-07-31T05:21:16;21.80;91.10
44117;DHT22;29781;49.480;8.512;2022-07-31T05:23:44;21.80;91.10
44117;DHT22;29781;49.480;8.512;2022-07-31T05:26:11;21.80;91.10
44117;DHT22;29781;49.480;8.512;2022-07-31T05:28:38;21.70;91.20
44117;DHT22;29781;49.480;8.512;2022-07-31T05:31:05;21.80;91.30
44117;DHT22;29781;49.480;8.512;2022-07-31T05:33:31;21.80;91.20
44117;DHT22;29781;49.480;8.512;2022-07-31T05:35:58;21.80;91.20
44117;DHT22;29781;49.480;8.512;2022-07-31T05:38:25;21.90;91.40
44117;DHT22;29781;49.480;8.512;2022-07-31T05:40:51;21.90;91.30
44117;DHT22;29781;49.480;8.512;2022-07-31T05:43:16;21.90;91.10
44117;DHT22;29781;49.480;8.512;2022-07-31T05:45:42;22.10;90.70
44117;DHT22;29781;49.480;8.512;2022-07-31T05:48:08;22.10;90.70
44117;DHT22;29781;49.480;8.512;2022-07-31T05:50:33;22.10;90.40
44117;DHT22;29781;49.480;8.512;2022-07-31T05:52:59;22.00;90.70
44117;DHT22;29781;49.480;8.512;2022-07-31T05:55:25;22.00;91.00
44117;DHT22;29781;49.480;8.512;2022-07-31T05:57:51;22.00;91.10
44117;DHT22;29781;49.480;8.512;2022-07-31T06:00:18;22.00;91.10
44117;DHT22;29781;49.480;8.512;2022-07-31T06:02:45;22.00;91.20
44117;DHT22;29781;49.480;8.512;2022-07-31T06:05:12;22.10;90.90
44117;DHT22;29781;49.480;8.512;2022-07-31T06:07:37;22.10;90.90
44117;DHT22;29781;49.480;8.512;2022-07-31T06:10:04;22.00;90.60
44117;DHT22;29781;49.480;8.512;2022-07-31T06:12:30;22.00;90.70
44117;DHT22;29781;49.480;8.512;2022-07-31T06:14:55;22.00;90.80
44117;DHT22;29781;49.480;8.512;2022-07-31T06:17:21;21.80;91.10
44117;DHT22;29781;49.480;8.512;2022-07-31T06:19:47;21.80;91.00
44117;DHT22;29781;49.480;8.512;2022-07-31T06:22:12;21.80;90.90
44117;DHT22;29781;49.480;8.512;2022-07-31T06:24:38;21.80;91.10
44117;DHT22;29781;49.480;8.512;2022-07-31T06:27:04;21.80;91.00
44117;DHT22;29781;49.480;8.512;2022-07-31T06:29:29;21.80;91.30
44117;DHT22;29781;49.480;8.512;2022-07-31T06:31:56;21.70;91.30
44117;DHT22;29781;49.480;8.512;2022-07-31T06:34:22;21.80;91.20
44117;DHT22;29781;49.480;8.512;2022-07-31T06:36:48;21.70;91.20
44117;DHT22;29781;49.480;8.512;2022-07-31T06:39:14;21.80;91.10
44117;DHT22;29781;49.480;8.512;2022-07-31T06:41:41;21.80;91.00
44117;DHT22;29781;49.480;8.512;2022-07-31T06:44:11;21.90;91.00
44117;DHT22;29781;49.480;8.512;2022-07-31T06:46:37;21.90;91.20
44117;DHT22;29781;49.480;8.512;2022-07-31T06:49:04;21.90;91.10
44117;DHT22;29781;49.480;8.512;2022-07-31T06:51:30;21.90;91.10
44117;DHT22;29781;49.480;8.512;2022-07-31T06:53:56;22.00;91.20
44117;DHT22;29781;49.480;8.512;2022-07-31T06:56:22;22.00;91.20
44117;DHT22;29781;49.480;8.512;2022-07-31T06:58:47;22.00;91.30
44117;DHT22;29781;49.480;8.512;2022-07-31T07:01:13;22.20;91.10
44117;DHT22;29781;49.480;8.512;2022-07-31T07:03:39;22.20;91.00
44117;DHT22;29781;49.480;8.512;2022-07-31T07:06:04;22.20;91.10
44117;DHT22;29781;49.480;8.512;2022-07-31T07:08:30;22.40;90.90
44117;DHT22;29781;49.480;8.512;2022-07-31T07:10:56;22.40;90.60
44117;DHT22;29781;49.480;8.512;2022-07-31T07:13:21;22.40;90.50
44117;DHT22;29781;49.480;8.512;2022-07-31T07:15:47;22.40;90.50
44117;DHT22;29781;49.480;8.512;2022-07-31T07:18:13;22.60;90.20
44117;DHT22;29781;49.480;8.512;2022-07-31T07:20:39;22.70;90.10
44117;DHT22;29781;49.480;8.512;2022-07-31T07:23:04;22.70;90.20
44117;DHT22;29781;49.480;8.512;2022-07-31T07:25:30;22.80;89.70
44117;DHT22;29781;49.480;8.512;2022-07-31T07:27:56;22.90;89.40
44117;DHT22;29781;49.480;8.512;2022-07-31T07:30:22;22.90;89.50
44117;DHT22;29781;49.480;8.512;2022-07-31T07:32:48;23.00;89.70
44117;DHT22;29781;49.480;8.512;2022-07-31T07:35:13;23.00;88.20
44117;DHT22;29781;49.480;8.512;2022-07-31T07:37:39;23.10;88.20
44117;DHT22;29781;49.480;8.512;2022-07-31T07:40:06;23.20;87.80
44117;DHT22;29781;49.480;8.512;2022-07-31T07:42:33;23.20;88.30
44117;DHT22;29781;49.480;8.512;2022-07-31T07:44:59;23.20;88.30
44117;DHT22;29781;49.480;8.512;2022-07-31T07:47:24;23.20;88.40
44117;DHT22;29781;49.480;8.512;2022-07-31T07:49:50;23.20;88.70
44117;DHT22;29781;49.480;8.512;2022-07-31T07:52:16;23.40;87.00
44117;DHT22;29781;49.480;8.512;2022-07-31T07:54:42;23.60;85.60
44117;DHT22;29781;49.480;8.512;2022-07-31T07:57:17;23.80;85.60
44117;DHT22;29781;49.480;8.512;2022-07-31T07:59:45;23.80;85.90
44117;DHT22;29781;49.480;8.512;2022-07-31T08:02:11;23.90;85.80
44117;DHT22;29781;49.480;8.512;2022-07-31T08:04:37;24.00;85.20
44117;DHT22;29781;49.480;8.512;2022-07-31T08:07:03;24.00;85.30
44117;DHT22;29781;49.480;8.512;2022-07-31T08:09:29;24.20;84.30
44117;DHT22;29781;49.480;8.512;2022-07-31T08:11:55;24.20;85.00
44117;DHT22;29781;49.480;8.512;2022-07-31T08:14:20;24.30;83.70
44117;DHT22;29781;49.480;8.512;2022-07-31T08:16:46;24.30;83.40
44117;DHT22;29781;49.480;8.512;2022-07-31T08:19:12;24.40;83.60
44117;DHT22;29781;49.480;8.512;2022-07-31T08:21:38;24.40;83.90
44117;DHT22;29781;49.480;8.512;2022-07-31T08:24:04;24.40;84.00
44117;DHT22;29781;49.480;8.512;2022-07-31T08:26:30;24.50;84.50
44117;DHT22;29781;49.480;8.512;2022-07-31T08:29:15;24.70;83.50
44117;DHT22;29781;49.480;8.512;2022-07-31T08:31:41;24.90;82.30
44117;DHT22;29781;49.480;8.512;2022-07-31T08:34:07;25.00;81.90
44117;DHT22;29781;49.480;8.512;2022-07-31T08:36:32;25.10;81.40
44117;DHT22;29781;49.480;8.512;2022-07-31T08:38:58;25.40;80.80
44117;DHT22;29781;49.480;8.512;2022-07-31T08:41:24;25.60;80.30
44117;DHT22;29781;49.480;8.512;2022-07-31T08:43:50;25.70;79.00
44117;DHT22;29781;49.480;8.512;2022-07-31T08:46:15;25.80;78.30
44117;DHT22;29781;49.480;8.512;2022-07-31T08:48:42;25.80;78.00
44117;DHT22;29781;49.480;8.512;2022-07-31T08:51:11;25.90;78.00
44117;DHT22;29781;49.480;8.512;2022-07-31T08:53:38;25.90;78.40
44117;DHT22;29781;49.480;8.512;2022-07-31T08:56:08;25.90;77.20
44117;DHT22;29781;49.480;8.512;2022-07-31T08:58:33;26.00;76.80
44117;DHT22;29781;49.480;8.512;2022-07-31T09:00:59;26.00;77.40
44117;DHT22;29781;49.480;8.512;2022-07-31T09:03:26;26.10;76.00
44117;DHT22;29781;49.480;8.512;2022-07-31T09:05:51;26.00;74.00
44117;DHT22;29781;49.480;8.512;2022-07-31T09:08:17;25.90;74.30
44117;DHT22;29781;49.480;8.512;2022-07-31T09:10:43;25.80;74.40
44117;DHT22;29781;49.480;8.512;2022-07-31T09:13:14;25.80;75.10
44117;DHT22;29781;49.480;8.512;2022-07-31T09:15:40;25.70;75.00
44117;DHT22;29781;49.480;8.512;2022-07-31T09:18:20;25.80;75.50
44117;DHT22;29781;49.480;8.512;2022-07-31T09:21:06;25.70;75.80
44117;DHT22;29781;49.480;8.512;2022-07-31T09:23:32;25.70;76.00
44117;DHT22;29781;49.480;8.512;2022-07-31T09:26:01;25.90;75.90
44117;DHT22;29781;49.480;8.512;2022-07-31T09:28:34;25.90;76.40
44117;DHT22;29781;49.480;8.512;2022-07-31T09:31:02;26.00;75.80
44117;DHT22;29781;49.480;8.512;2022-07-31T09:33:28;26.00;76.60
44117;DHT22;29781;49.480;8.512;2022-07-31T09:35:55;26.20;76.10
44117;DHT22;29781;49.480;8.512;2022-07-31T09:38:30;26.30;76.20
44117;DHT22;29781;49.480;8.512;2022-07-31T09:41:06;26.30;76.80
44117;DHT22;29781;49.480;8.512;2022-07-31T09:43:32;26.30;77.10
44117;DHT22;29781;49.480;8.512;2022-07-31T09:46:04;26.40;76.90
44117;DHT22;29781;49.480;8.512;2022-07-31T09:48:30;26.30;77.40
44117;DHT22;29781;49.480;8.512;2022-07-31T09:51:01;26.30;77.70
44117;DHT22;29781;49.480;8.512;2022-07-31T09:53:45;26.30;78.50
44117;DHT22;29781;49.480;8.512;2022-07-31T09:56:11;26.30;78.70
44117;DHT22;29781;49.480;8.512;2022-07-31T09:58:40;26.20;79.10
44117;DHT22;29781;49.480;8.512;2022-07-31T10:01:11;26.20;79.70
44117;DHT22;29781;49.480;8.512;2022-07-31T10:03:38;26.30;80.10
44117;DHT22;29781;49.480;8.512;2022-07-31T10:06:11;26.40;79.90
44117;DHT22;29781;49.480;8.512;2022-07-31T10:08:40;26.40;79.60
44117;DHT22;29781;49.480;8.512;2022-07-31T10:11:08;26.50;79.30
44117;DHT22;29781;49.480;8.512;2022-07-31T10:13:39;26.50;79.10
44117;DHT22;29781;49.480;8.512;2022-07-31T10:16:06;26.60;79.40
44117;DHT22;29781;49.480;8.512;2022-07-31T10:18:37;26.50;79.60
44117;DHT22;29781;49.480;8.512;2022-07-31T10:21:04;26.60;79.70
44117;DHT22;29781;49.480;8.512;2022-07-31T10:23:33;26.60;80.30
44117;DHT22;29781;49.480;8.512;2022-07-31T10:26:00;26.60;80.90
44117;DHT22;29781;49.480;8.512;2022-07-31T10:28:27;26.80;80.70
44117;DHT22;29781;49.480;8.512;2022-07-31T10:30:57;26.90;80.40
44117;DHT22;29781;49.480;8.512;2022-07-31T10:33:23;27.00;79.90
44117;DHT22;29781;49.480;8.512;2022-07-31T10:35:59;27.00;80.30
44117;DHT22;29781;49.480;8.512;2022-07-31T10:38:33;27.20;78.70
44117;DHT22;29781;49.480;8.512;2022-07-31T10:41:14;27.30;79.10
44117;DHT22;29781;49.480;8.512;2022-07-31T10:43:51;27.30;79.00
44117;DHT22;29781;49.480;8.512;2022-07-31T10:46:29;27.40;77.90
44117;DHT22;29781;49.480;8.512;2022-07-31T10:48:56;27.40;77.80
44117;DHT22;29781;49.480;8.512;2022-07-31T10:51:22;27.40;78.20
44117;DHT22;29781;49.480;8.512;2022-07-31T10:54:03;27.50;78.00
44117;DHT22;29781;49.480;8.512;2022-07-31T10:56:45;27.40;77.60
44117;DHT22;29781;49.480;8.512;2022-07-31T10:59:12;27.50;77.20
44117;DHT22;29781;49.480;8.512;2022-07-31T11:01:51;27.60;78.30
44117;DHT22;29781;49.480;8.512;2022-07-31T11:04:27;27.80;77.50
44117;DHT22;29781;49.480;8.512;2022-07-31T11:06:53;27.80;77.50
44117;DHT22;29781;49.480;8.512;2022-07-31T11:09:22;27.70;78.10
44117;DHT22;29781;49.480;8.512;2022-07-31T11:11:48;27.70;77.80
44117;DHT22;29781;49.480;8.512;2022-07-31T11:14:14;27.80;79.30
44117;DHT22;29781;49.480;8.512;2022-07-31T11:16:50;27.80;78.30
44117;DHT22;29781;49.480;8.512;2022-07-31T11:19:16;27.90;78.60
44117;DHT22;29781;49.480;8.512;2022-07-31T11:21:42;27.90;77.10
44117;DHT22;29781;49.480;8.512;2022-07-31T11:24:26;27.90;78.00
44117;DHT22;29781;49.480;8.512;2022-07-31T11:26:54;27.90;77.40
44117;DHT22;29781;49.480;8.512;2022-07-31T11:29:28;27.80;77.20
44117;DHT22;29781;49.480;8.512;2022-07-31T11:32:10;27.90;76.40
44117;DHT22;29781;49.480;8.512;2022-07-31T11:34:48;28.00;76.00
44117;DHT22;29781;49.480;8.512;2022-07-31T11:37:19;27.90;76.50
44117;DHT22;29781;49.480;8.512;2022-07-31T11:39:46;27.90;76.90
44117;DHT22;29781;49.480;8.512;2022-07-31T11:42:12;28.00;76.40
44117;DHT22;29781;49.480;8.512;2022-07-31T11:44:38;28.10;76.30
44117;DHT22;29781;49.480;8.512;2022-07-31T11:47:04;28.10;75.80
44117;DHT22;29781;49.480;8.512;2022-07-31T11:49:30;28.10;75.60
44117;DHT22;29781;49.480;8.512;2022-07-31T11:52:03;28.10;75.60
44117;DHT22;29781;49.480;8.512;2022-07-31T11:54:30;28.10;75.90
44117;DHT22;29781;49.480;8.512;2022-07-31T11:56:56;28.10;76.30
44117;DHT22;29781;49.480;8.512;2022-07-31T11:59:35;28.20;76.40
44117;DHT22;29781;49.480;8.512;2022-07-31T12:02:08;28.20;75.60
44117;DHT22;29781;49.480;8.512;2022-07-31T12:04:35;28.10;75.60
44117;DHT22;29781;49.480;8.512;2022-07-31T12:07:06;28.10;76.00
44117;DHT22;29781;49.480;8.512;2022-07-31T12:09:33;28.10;76.70
44117;DHT22;29781;49.480;8.512;2022-07-31T12:12:00;28.10;75.60
44117;DHT22;29781;49.480;8.512;2022-07-31T12:14:35;28.20;75.50
44117;DHT22;29781;49.480;8.512;2022-07-31T12:17:03;28.20;75.60
44117;DHT22;29781;49.480;8.512;2022-07-31T12:19:31;28.20;76.10
44117;DHT22;29781;49.480;8.512;2022-07-31T12:21:58;28.30;75.70
44117;DHT22;29781;49.480;8.512;2022-07-31T12:24:25;28.30;75.70
44117;DHT22;29781;49.480;8.512;2022-07-31T12:26:52;28.40;75.80
44117;DHT22;29781;49.480;8.512;2022-07-31T12:29:19;28.40;76.10
44117;DHT22;29781;49.480;8.512;2022-07-31T12:31:53;28.40;75.80
44117;DHT22;29781;49.480;8.512;2022-07-31T12:34:36;28.40;75.90
44117;DHT22;29781;49.480;8.512;2022-07-31T12:37:07;28.50;74.80
44117;DHT22;29781;49.480;8.512;2022-07-31T12:39:37;28.60;73.80
44117;DHT22;29781;49.480;8.512;2022-07-31T12:42:04;28.50;72.90
44117;DHT22;29781;49.480;8.512;2022-07-31T12:44:30;28.60;72.50
44117;DHT22;29781;49.480;8.512;2022-07-31T12:46:56;28.70;72.10
44117;DHT22;29781;49.480;8.512;2022-07-31T12:49:22;28.70;69.90
44117;DHT22;29781;49.480;8.512;2022-07-31T12:51:48;28.80;70.50
44117;DHT22;29781;49.480;8.512;2022-07-31T12:54:16;28.90;69.90
44117;DHT22;29781;49.480;8.512;2022-07-31T12:56:43;28.90;69.60
44117;DHT22;29781;49.480;8.512;2022-07-31T12:59:10;29.10;70.10
44117;DHT22;29781;49.480;8.512;2022-07-31T13:01:36;29.30;69.20
44117;DHT22;29781;49.480;8.512;2022-07-31T13:04:02;29.30;69.00
44117;DHT22;29781;49.480;8.512;2022-07-31T13:06:30;29.30;69.30
44117;DHT22;29781;49.480;8.512;2022-07-31T13:08:56;29.60;68.40
44117;DHT22;29781;49.480;8.512;2022-07-31T13:11:22;29.80;68.60
44117;DHT22;29781;49.480;8.512;2022-07-31T13:13:49;29.90;67.40
44117;DHT22;29781;49.480;8.512;2022-07-31T13:16:15;29.90;66.80
44117;DHT22;29781;49.480;8.512;2022-07-31T13:18:41;29.80;67.10
44117;DHT22;29781;49.480;8.512;2022-07-31T13:21:07;29.70;67.40
44117;DHT22;29781;49.480;8.512;2022-07-31T13:23:32;29.80;67.90
44117;DHT22;29781;49.480;8.512;2022-07-31T13:25:58;29.90;67.10
44117;DHT22;29781;49.480;8.512;2022-07-31T13:28:24;30.00;67.50
44117;DHT22;29781;49.480;8.512;2022-07-31T13:30:51;30.20;66.80
44117;DHT22;29781;49.480;8.512;2022-07-31T13:33:18;30.30;65.90
44117;DHT22;29781;49.480;8.512;2022-07-31T13:35:44;30.30;66.30
44117;DHT22;29781;49.480;8.512;2022-07-31T13:38:09;30.20;65.60
44117;DHT22;29781;49.480;8.512;2022-07-31T13:40:37;30.20;66.20
44117;DHT22;29781;49.480;8.512;2022-07-31T13:43:21;30.20;66.10
44117;DHT22;29781;49.480;8.512;2022-07-31T13:45:47;30.30;66.10
44117;DHT22;29781;49.480;8.512;2022-07-31T13:48:14;30.20;66.50
44117;DHT22;29781;49.480;8.512;2022-07-31T13:50:40;30.20;66.50
44117;DHT22;29781;49.480;8.512;2022-07-31T13:53:07;30.20;66.50
44117;DHT22;29781;49.480;8.512;2022-07-31T13:55:33;30.20;66.20
44117;DHT22;29781;49.480;8.512;2022-07-31T13:57:58;30.20;66.30
44117;DHT22;29781;49.480;8.512;2022-07-31T14:00:24;30.10;66.30
44117;DHT22;29781;49.480;8.512;2022-07-31T14:02:50;30.20;65.30
44117;DHT22;29781;49.480;8.512;2022-07-31T14:05:17;30.40;65.20
44117;DHT22;29781;49.480;8.512;2022-07-31T14:07:42;30.40;65.40
44117;DHT22;29781;49.480;8.512;2022-07-31T14:10:08;30.50;65.50
44117;DHT22;29781;49.480;8.512;2022-07-31T14:12:34;30.50;66.00
44117;DHT22;29781;49.480;8.512;2022-07-31T14:14:59;30.60;65.60
44117;DHT22;29781;49.480;8.512;2022-07-31T14:17:25;30.60;65.40
44117;DHT22;29781;49.480;8.512;2022-07-31T14:19:51;30.80;65.30
44117;DHT22;29781;49.480;8.512;2022-07-31T14:22:16;30.80;65.50
44117;DHT22;29781;49.480;8.512;2022-07-31T14:24:42;30.90;64.00
44117;DHT22;29781;49.480;8.512;2022-07-31T14:27:08;30.90;62.50
44117;DHT22;29781;49.480;8.512;2022-07-31T14:29:34;30.80;62.30
44117;DHT22;29781;49.480;8.512;2022-07-31T14:32:00;30.70;62.60
44117;DHT22;29781;49.480;8.512;2022-07-31T14:34:25;30.70;63.40
44117;DHT22;29781;49.480;8.512;2022-07-31T14:36:51;30.70;63.70
44117;DHT22;29781;49.480;8.512;2022-07-31T14:39:17;30.90;62.90
44117;DHT22;29781;49.480;8.512;2022-07-31T14:41:42;31.10;62.60
44117;DHT22;29781;49.480;8.512;2022-07-31T14:44:08;31.10;61.60
44117;DHT22;29781;49.480;8.512;2022-07-31T14:46:34;31.00;61.60
44117;DHT22;29781;49.480;8.512;2022-07-31T14:48:59;30.90;62.30
44117;DHT22;29781;49.480;8.512;2022-07-31T14:51:27;30.90;62.20
44117;DHT22;29781;49.480;8.512;2022-07-31T14:53:53;31.10;61.90
44117;DHT22;29781;49.480;8.512;2022-07-31T14:56:19;31.20;61.70
44117;DHT22;29781;49.480;8.512;2022-07-31T14:58:44;31.20;61.10
44117;DHT22;29781;49.480;8.512;2022-07-31T15:01:10;31.10;61.20
44117;DHT22;29781;49.480;8.512;2022-07-31T15:03:36;31.10;61.30
44117;DHT22;29781;49.480;8.512;2022-07-31T15:06:01;30.90;60.90
44117;DHT22;29781;49.480;8.512;2022-07-31T15:08:27;31.00;61.30
44117;DHT22;29781;49.480;8.512;2022-07-31T15:10:53;31.00;60.90
44117;DHT22;29781;49.480;8.512;2022-07-31T15:13:18;31.10;60.60
44117;DHT22;29781;49.480;8.512;2022-07-31T15:15:44;31.10;60.40
44117;DHT22;29781;49.480;8.512;2022-07-31T15:18:10;31.10;60.60
44117;DHT22;29781;49.480;8.512;2022-07-31T15:20:36;31.20;59.80
44117;DHT22;29781;49.480;8.512;2022-07-31T15:23:02;31.20;59.70
44117;DHT22;29781;49.480;8.512;2022-07-31T15:25:28;31.20;60.20
44117;DHT22;29781;49.480;8.512;2022-07-31T15:27:54;31.30;60.70
44117;DHT22;29781;49.480;8.512;2022-07-31T15:30:20;31.30;59.60
44117;DHT22;29781;49.480;8.512;2022-07-31T15:32:46;31.20;59.80
44117;DHT22;29781;49.480;8.512;2022-07-31T15:35:13;31.30;59.50
44117;DHT22;29781;49.480;8.512;2022-07-31T15:37:41;31.40;59.00